Time;durP1;ratioP1;P1;durP2;ratioP2;P2;SDS_P1;SDS_P2;PMS_P1;PMS_P2;Temp;Humidity;BMP_temperature;BMP_pressure;BME280_temperature;BME280_humidity;BME280_pressure;Samples;Min_cycle;Max_cycle;Signal;HPM_P1;HPM_P2
2023/06/20 00:00:01;;;;;;;9.43;6.50;;;;;;;;;;4416993;32;316515;-96
2023/06/20 00:02:28;;;;;;;7.50;6.25;;;;;;;;;;4419577;32;316437;-93
2023/06/20 00:04:59;;;;;;;10.55;6.10;;;;;;;;;;4407395;32;316478;-94
2023/06/20 00:07:27;;;;;;;21.87;6.65;;;;;;;;;;4437111;32;317766;-95
2023/06/20 00:09:55;;;;;;;17.90;6.97;;;;;;;;;;4417891;32;330195;-94
2023/06/20 00:12:26;;;;;;;9.80;6.80;;;;;;;;;;4425986;32;317385;-94
2023/06/20 00:14:53;;;;;;;9.82;6.75;;;;;;;;;;4420270;32;316384;-93
2023/06/20 00:17:25;;;;;;;12.70;7.45;;;;;;;;;;4441866;32;316401;-92
2023/06/20 00:19:53;;;;;;;16.73;7.13;;;;;;;;;;4427999;32;317372;-94
2023/06/20 00:22:20;;;;;;;12.73;6.50;;;;;;;;;;4429568;32;331555;-94
2023/06/20 00:24:47;;;;;;;11.25;6.20;;;;;;;;;;4416250;32;317120;-93
2023/06/20 00:27:16;;;;;;;7.30;6.25;;;;;;;;;;4435124;32;317550;-95
2023/06/20 00:29:47;;;;;;;13.38;6.50;;;;;;;;;;4427530;32;316565;-94
2023/06/20 00:32:13;;;;;;;12.70;5.87;;;;;;;;;;4423161;32;317512;-94
2023/06/20 00:34:41;;;;;;;8.02;6.25;;;;;;;;;;4425962;32;317374;-96
2023/06/20 00:37:08;;;;;;;8.18;6.20;;;;;;;;;;4427349;32;316364;-95
2023/06/20 00:39:38;;;;;;;14.15;6.10;;;;;;;;;;4433514;32;316326;-94
2023/06/20 00:42:17;;;;;;;12.10;6.97;;;;;;;;;;4416002;32;317484;-93
2023/06/20 00:44:46;;;;;;;14.77;6.77;;;;;;;;;;4422348;32;317489;-95
2023/06/20 00:47:15;;;;;;;9.93;7.55;;;;;;;;;;4422375;32;317449;-93
2023/06/20 00:49:45;;;;;;;11.93;7.97;;;;;;;;;;4424783;32;316467;-94
2023/06/20 00:52:14;;;;;;;13.90;6.82;;;;;;;;;;4422324;32;317514;-92
2023/06/20 00:54:44;;;;;;;10.05;7.62;;;;;;;;;;4426052;32;317751;-93
2023/06/20 00:57:12;;;;;;;17.75;8.52;;;;;;;;;;4437610;32;317341;-92
2023/06/20 00:59:39;;;;;;;12.98;9.43;;;;;;;;;;4433185;32;317407;-93
2023/06/20 01:02:07;;;;;;;12.65;8.57;;;;;;;;;;4445070;32;317482;-93
2023/06/20 01:04:35;;;;;;;10.10;7.25;;;;;;;;;;4398370;32;317263;-95
2023/06/20 01:07:09;;;;;;;10.02;7.30;;;;;;;;;;4440484;32;317072;-95
2023/06/20 01:09:53;;;;;;;11.63;8.02;;;;;;;;;;4411011;32;317670;-95
2023/06/20 01:12:31;;;;;;;20.83;12.15;;;;;;;;;;4439425;32;317629;-95
2023/06/20 01:15:11;;;;;;;16.33;10.10;;;;;;;;;;4412126;32;318347;-94
2023/06/20 01:17:46;;;;;;;15.02;10.93;;;;;;;;;;4428441;32;318342;-95
2023/06/20 01:20:16;;;;;;;19.55;10.93;;;;;;;;;;4438521;32;319081;-95
2023/06/20 01:22:57;;;;;;;13.10;10.57;;;;;;;;;;4413702;32;321195;-96
2023/06/20 01:25:33;;;;;;;14.48;9.68;;;;;;;;;;4437830;32;318475;-94
2023/06/20 01:28:10;;;;;;;13.93;9.23;;;;;;;;;;4423285;32;421285;-95
2023/06/20 01:30:46;;;;;;;15.73;8.50;;;;;;;;;;4419291;32;374899;-94
2023/06/20 01:33:17;;;;;;;17.87;8.85;;;;;;;;;;4437411;32;316240;-95
2023/06/20 01:35:48;;;;;;;11.68;7.03;;;;;;;;;;4414430;32;317355;-95
2023/06/20 01:38:21;;;;;;;8.55;7.03;;;;;;;;;;4423959;32;317436;-95
2023/06/20 01:40:50;;;;;;;8.55;7.22;;;;;;;;;;4412295;32;316288;-95
2023/06/20 01:43:19;;;;;;;10.45;7.05;;;;;;;;;;4437019;32;316393;-95
2023/06/20 01:45:48;;;;;;;10.37;6.50;;;;;;;;;;4418706;32;317180;-95
2023/06/20 01:48:18;;;;;;;10.23;6.57;;;;;;;;;;4417357;32;317592;-94
2023/06/20 01:50:47;;;;;;;9.02;5.90;;;;;;;;;;4420183;32;317628;-95
2023/06/20 01:53:18;;;;;;;11.27;6.53;;;;;;;;;;4437607;32;316442;-94
2023/06/20 01:55:48;;;;;;;7.75;6.62;;;;;;;;;;4395127;32;317406;-95
2023/06/20 01:58:17;;;;;;;17.48;6.72;;;;;;;;;;4437092;32;316651;-95
2023/06/20 02:00:45;;;;;;;13.88;6.87;;;;;;;;;;4427589;32;351134;-93
2023/06/20 02:03:15;;;;;;;12.45;6.72;;;;;;;;;;4424142;32;317262;-94
2023/06/20 02:05:43;;;;;;;12.68;6.60;;;;;;;;;;4413739;32;317595;-95
2023/06/20 02:08:13;;;;;;;11.23;6.60;;;;;;;;;;4422872;32;317706;-94
2023/06/20 02:10:44;;;;;;;8.85;7.30;;;;;;;;;;4414260;32;317422;-94
2023/06/20 02:13:12;;;;;;;10.15;6.62;;;;;;;;;;4436684;32;316845;-95
2023/06/20 02:15:42;;;;;;;8.27;6.60;;;;;;;;;;4420017;32;317524;-95
2023/06/20 02:18:10;;;;;;;12.20;6.93;;;;;;;;;;4437754;32;315293;-94
2023/06/20 02:20:40;;;;;;;8.55;6.45;;;;;;;;;;4423214;32;325956;-95
2023/06/20 02:23:09;;;;;;;9.25;6.87;;;;;;;;;;4423509;32;316481;-95
2023/06/20 02:25:42;;;;;;;7.20;6.43;;;;;;;;;;4422918;32;316368;-94
2023/06/20 02:28:15;;;;;;;14.43;6.82;;;;;;;;;;4430644;32;316499;-93
2023/06/20 02:30:43;;;;;;;17.60;6.93;;;;;;;;;;4412162;32;317591;-93
2023/06/20 02:33:13;;;;;;;9.98;7.00;;;;;;;;;;4436603;32;317529;-93
2023/06/20 02:35:43;;;;;;;7.40;6.37;;;;;;;;;;4399504;32;316615;-94
2023/06/20 02:38:15;;;;;;;7.60;6.30;;;;;;;;;;4438023;32;316990;-93
2023/06/20 02:40:43;;;;;;;10.88;6.87;;;;;;;;;;4428548;32;316460;-94
2023/06/20 02:43:12;;;;;;;7.97;6.62;;;;;;;;;;4410253;32;317544;-94
2023/06/20 02:45:39;;;;;;;7.50;6.70;;;;;;;;;;4426334;32;316215;-95
2023/06/20 02:48:20;;;;;;;8.52;6.82;;;;;;;;;;4422877;32;315139;-94
2023/06/20 02:50:59;;;;;;;9.15;7.40;;;;;;;;;;4413074;32;316316;-96
2023/06/20 02:53:34;;;;;;;13.02;6.75;;;;;;;;;;4422053;32;316535;-93
2023/06/20 02:56:03;;;;;;;13.52;6.62;;;;;;;;;;4411487;32;389559;-92
2023/06/20 02:58:34;;;;;;;7.87;6.28;;;;;;;;;;4424255;32;316443;-95
2023/06/20 03:01:02;;;;;;;13.65;6.40;;;;;;;;;;4421752;32;416006;-92
2023/06/20 03:03:37;;;;;;;9.52;6.55;;;;;;;;;;4428269;32;317461;-94
2023/06/20 03:06:07;;;;;;;9.82;6.90;;;;;;;;;;4403627;32;387267;-94
2023/06/20 03:08:41;;;;;;;10.75;7.30;;;;;;;;;;4435236;32;316315;-94
2023/06/20 03:11:09;;;;;;;7.72;6.80;;;;;;;;;;4437871;32;317343;-94
2023/06/20 03:13:40;;;;;;;19.25;6.95;;;;;;;;;;4413983;32;316563;-95
2023/06/20 03:16:09;;;;;;;10.82;6.65;;;;;;;;;;4435871;32;317582;-93
2023/06/20 03:18:37;;;;;;;9.30;6.47;;;;;;;;;;4412034;32;317452;-95
2023/06/20 03:21:04;;;;;;;8.05;6.62;;;;;;;;;;4435178;32;315330;-94
2023/06/20 03:23:33;;;;;;;12.60;6.30;;;;;;;;;;4414580;32;316452;-94
2023/06/20 03:26:01;;;;;;;10.85;6.72;;;;;;;;;;4422404;32;419788;-95
2023/06/20 03:28:29;;;;;;;8.60;6.95;;;;;;;;;;4429176;32;317955;-93
2023/06/20 03:31:02;;;;;;;17.98;6.57;;;;;;;;;;4425883;32;316180;-96
2023/06/20 03:33:30;;;;;;;12.05;6.90;;;;;;;;;;4436226;32;317434;-95
2023/06/20 03:35:57;;;;;;;13.70;6.87;;;;;;;;;;4424396;32;317459;-95
2023/06/20 03:38:24;;;;;;;13.40;6.75;;;;;;;;;;4427054;32;318211;-92
2023/06/20 03:40:52;;;;;;;8.73;6.37;;;;;;;;;;4401015;32;318007;-94
2023/06/20 03:43:19;;;;;;;6.68;5.97;;;;;;;;;;4435454;32;316522;-95
2023/06/20 03:45:46;;;;;;;10.65;6.95;;;;;;;;;;4404014;32;316526;-93
2023/06/20 03:48:15;;;;;;;9.23;6.97;;;;;;;;;;4436118;32;317545;-96
2023/06/20 03:50:42;;;;;;;9.15;6.55;;;;;;;;;;4427486;32;316852;-93
2023/06/20 03:53:09;;;;;;;16.20;8.50;;;;;;;;;;4409707;32;316599;-93
2023/06/20 03:55:36;;;;;;;11.10;8.15;;;;;;;;;;4418926;32;318005;-92
2023/06/20 03:58:04;;;;;;;9.80;8.10;;;;;;;;;;4435722;32;318004;-93
2023/06/20 04:00:33;;;;;;;14.93;8.18;;;;;;;;;;4401596;32;316333;-93
2023/06/20 04:03:00;;;;;;;10.45;8.75;;;;;;;;;;4401263;32;414766;-93
2023/06/20 04:05:32;;;;;;;10.38;8.10;;;;;;;;;;4419377;32;317823;-94
2023/06/20 04:08:00;;;;;;;11.45;8.00;;;;;;;;;;4426761;32;317824;-95
2023/06/20 04:10:28;;;;;;;12.73;8.48;;;;;;;;;;4414667;32;316769;-94
2023/06/20 04:12:58;;;;;;;11.07;7.82;;;;;;;;;;4424945;32;350042;-95
2023/06/20 04:15:25;;;;;;;10.77;7.35;;;;;;;;;;4436543;32;317592;-93
2023/06/20 04:17:52;;;;;;;11.90;7.97;;;;;;;;;;4390253;32;325147;-93
2023/06/20 04:20:20;;;;;;;10.77;6.93;;;;;;;;;;4426736;32;317108;-94
2023/06/20 04:22:51;;;;;;;14.30;8.52;;;;;;;;;;4424132;32;318403;-92
2023/06/20 04:25:20;;;;;;;11.63;8.43;;;;;;;;;;4420397;32;317900;-92
2023/06/20 04:27:55;;;;;;;10.50;8.02;;;;;;;;;;4412957;32;318120;-94
2023/06/20 04:30:25;;;;;;;14.15;8.40;;;;;;;;;;4422961;32;326884;-94
2023/06/20 04:32:53;;;;;;;9.38;7.80;;;;;;;;;;4423459;32;318039;-93
2023/06/20 04:35:21;;;;;;;13.95;7.95;;;;;;;;;;4435366;32;317030;-95
2023/06/20 04:37:51;;;;;;;9.35;7.70;;;;;;;;;;4404900;32;318148;-93
2023/06/20 04:40:19;;;;;;;14.82;8.15;;;;;;;;;;4434770;32;315408;-95
2023/06/20 04:42:46;;;;;;;12.10;7.95;;;;;;;;;;4415338;32;317437;-91
2023/06/20 04:45:15;;;;;;;17.52;8.40;;;;;;;;;;4443964;32;317506;-93
2023/06/20 04:47:42;;;;;;;17.90;8.85;;;;;;;;;;4417367;32;317600;-94
2023/06/20 04:50:10;;;;;;;16.92;7.72;;;;;;;;;;4438958;32;317348;-94
2023/06/20 04:52:37;;;;;;;12.07;7.40;;;;;;;;;;4424928;32;317859;-95
2023/06/20 04:55:09;;;;;;;11.63;7.78;;;;;;;;;;4432585;32;316339;-95
2023/06/20 04:57:40;;;;;;;12.85;8.60;;;;;;;;;;4412145;32;317405;-94
2023/06/20 05:00:12;;;;;;;10.85;7.82;;;;;;;;;;4411030;32;324918;-96
2023/06/20 05:02:42;;;;;;;11.07;7.72;;;;;;;;;;4424340;32;317632;-95
2023/06/20 05:05:10;;;;;;;11.15;7.47;;;;;;;;;;4434205;32;316216;-93
2023/06/20 05:07:37;;;;;;;11.55;7.18;;;;;;;;;;4409358;32;317446;-93
2023/06/20 05:10:10;;;;;;;12.50;7.78;;;;;;;;;;4433697;32;316311;-93
2023/06/20 05:12:39;;;;;;;15.13;8.27;;;;;;;;;;4422523;32;317576;-95
2023/06/20 05:17:50;;;;;;;10.77;8.27;;;;;;;;;;4419393;32;318049;-94
2023/06/20 05:20:20;;;;;;;20.92;9.27;;;;;;;;;;4428493;32;318079;-93
2023/06/20 05:22:47;;;;;;;24.20;8.98;;;;;;;;;;4416685;32;317570;-95
2023/06/20 05:25:24;;;;;;;14.65;8.95;;;;;;;;;;4435953;32;317409;-95
2023/06/20 05:27:58;;;;;;;13.93;8.02;;;;;;;;;;4426781;32;317625;-96
2023/06/20 05:30:26;;;;;;;10.27;7.70;;;;;;;;;;4436811;32;317518;-95
2023/06/20 05:32:54;;;;;;;16.05;7.95;;;;;;;;;;4411086;32;317743;-94
2023/06/20 05:35:22;;;;;;;19.40;8.32;;;;;;;;;;4409726;32;317618;-95
2023/06/20 05:37:51;;;;;;;12.43;8.18;;;;;;;;;;4394591;32;318084;-95
2023/06/20 05:40:28;;;;;;;17.12;8.50;;;;;;;;;;4438636;32;317660;-94
2023/06/20 05:42:59;;;;;;;11.32;7.82;;;;;;;;;;4393637;32;318226;-93
2023/06/20 05:45:31;;;;;;;15.50;8.45;;;;;;;;;;4402707;32;317572;-92
2023/06/20 05:47:59;;;;;;;9.95;6.93;;;;;;;;;;4427714;32;318067;-94
2023/06/20 05:50:30;;;;;;;12.25;7.78;;;;;;;;;;4425692;32;316732;-95
2023/06/20 05:53:00;;;;;;;19.83;8.82;;;;;;;;;;4412534;32;316487;-96
2023/06/20 05:55:33;;;;;;;16.02;8.07;;;;;;;;;;4420025;32;317661;-92
2023/06/20 05:58:02;;;;;;;9.05;7.80;;;;;;;;;;4429574;32;349105;-91
2023/06/20 06:00:33;;;;;;;13.07;6.90;;;;;;;;;;4441641;32;316615;-96
2023/06/20 06:03:02;;;;;;;12.00;7.35;;;;;;;;;;4406599;32;389509;-96
2023/06/20 06:05:31;;;;;;;11.98;8.18;;;;;;;;;;4424249;32;317613;-96
2023/06/20 06:07:58;;;;;;;8.90;7.93;;;;;;;;;;4408402;32;317473;-92
2023/06/20 06:10:25;;;;;;;18.15;7.82;;;;;;;;;;4417893;32;316621;-92
2023/06/20 06:12:59;;;;;;;11.55;7.03;;;;;;;;;;4427674;32;317439;-94
2023/06/20 06:15:33;;;;;;;11.40;7.87;;;;;;;;;;4424535;32;317672;-96
2023/06/20 06:18:00;;;;;;;13.65;7.40;;;;;;;;;;4393464;32;389353;-93
2023/06/20 06:20:29;;;;;;;11.88;7.50;;;;;;;;;;4420143;32;333383;-96
2023/06/20 06:22:57;;;;;;;10.45;7.72;;;;;;;;;;4418995;32;317774;-93
2023/06/20 06:25:24;;;;;;;12.25;8.52;;;;;;;;;;4413209;32;317465;-94
2023/06/20 06:27:55;;;;;;;10.63;7.55;;;;;;;;;;4419187;32;317388;-94
2023/06/20 06:30:23;;;;;;;9.82;7.65;;;;;;;;;;4429225;32;317675;-94
2023/06/20 06:32:54;;;;;;;8.60;7.70;;;;;;;;;;4415376;32;316901;-93
2023/06/20 06:35:22;;;;;;;12.80;7.87;;;;;;;;;;4438608;32;316907;-94
2023/06/20 06:37:53;;;;;;;11.43;7.85;;;;;;;;;;4424404;32;317824;-94
2023/06/20 06:40:21;;;;;;;11.68;7.97;;;;;;;;;;4425407;32;317579;-93
2023/06/20 06:42:48;;;;;;;8.85;7.95;;;;;;;;;;4418348;32;317786;-94
2023/06/20 06:45:18;;;;;;;10.35;8.32;;;;;;;;;;4423602;32;316505;-94
2023/06/20 06:47:47;;;;;;;13.50;8.50;;;;;;;;;;4418725;32;317967;-94
2023/06/20 06:50:17;;;;;;;14.85;7.97;;;;;;;;;;4436843;32;317960;-94
2023/06/20 06:52:44;;;;;;;12.13;8.18;;;;;;;;;;4413293;32;317927;-94
2023/06/20 06:55:12;;;;;;;8.82;7.75;;;;;;;;;;4422652;32;337701;-94
2023/06/20 06:57:41;;;;;;;8.98;8.07;;;;;;;;;;4410761;32;316484;-93
2023/06/20 07:00:14;;;;;;;8.82;7.37;;;;;;;;;;4410881;32;316547;-93
2023/06/20 07:02:47;;;;;;;14.73;9.63;;;;;;;;;;4426291;32;316710;-93
2023/06/20 07:05:14;;;;;;;10.90;7.62;;;;;;;;;;4416069;32;317100;-94
2023/06/20 07:07:46;;;;;;;12.90;8.18;;;;;;;;;;4405523;32;317667;-93
2023/06/20 07:10:14;;;;;;;12.32;8.73;;;;;;;;;;4436883;32;317536;-93
2023/06/20 07:12:41;;;;;;;12.77;7.55;;;;;;;;;;4425788;32;317961;-94
2023/06/20 07:15:10;;;;;;;13.82;8.10;;;;;;;;;;4428199;32;317509;-95
2023/06/20 07:17:38;;;;;;;13.65;8.57;;;;;;;;;;4405852;32;317433;-95
2023/06/20 07:20:14;;;;;;;13.88;9.45;;;;;;;;;;4416685;32;317511;-94
2023/06/20 07:22:42;;;;;;;12.32;8.02;;;;;;;;;;4426613;32;317398;-94
2023/06/20 07:25:11;;;;;;;15.95;9.25;;;;;;;;;;4434176;32;317966;-96
2023/06/20 07:27:39;;;;;;;15.85;8.38;;;;;;;;;;4418539;32;317423;-94
2023/06/20 07:30:09;;;;;;;12.15;8.68;;;;;;;;;;4434097;32;318104;-94
2023/06/20 07:32:39;;;;;;;13.93;8.45;;;;;;;;;;4413550;32;317451;-94
2023/06/20 07:35:08;;;;;;;10.98;8.73;;;;;;;;;;4422248;32;317371;-93
2023/06/20 07:37:41;;;;;;;11.52;8.85;;;;;;;;;;4434767;32;317704;-93
2023/06/20 07:40:08;;;;;;;15.68;8.35;;;;;;;;;;4413003;32;317390;-93
2023/06/20 07:42:35;;;;;;;11.60;9.15;;;;;;;;;;4424106;32;339762;-93
2023/06/20 07:45:03;;;;;;;13.30;9.30;;;;;;;;;;4433056;32;316287;-94
2023/06/20 07:47:33;;;;;;;12.52;8.60;;;;;;;;;;4388110;32;317962;-93
2023/06/20 07:50:00;;;;;;;11.52;9.05;;;;;;;;;;4381917;32;389492;-93
2023/06/20 07:52:32;;;;;;;15.00;7.85;;;;;;;;;;4435464;32;316987;-92
2023/06/20 07:55:03;;;;;;;16.35;8.05;;;;;;;;;;4428886;32;317219;-93
2023/06/20 07:57:31;;;;;;;8.75;7.65;;;;;;;;;;4436913;32;317452;-92
2023/06/20 07:59:59;;;;;;;15.15;9.02;;;;;;;;;;4385591;32;331570;-93
2023/06/20 08:02:28;;;;;;;15.38;8.93;;;;;;;;;;4437654;32;317486;-94
2023/06/20 08:05:08;;;;;;;9.25;8.18;;;;;;;;;;4420221;32;317398;-91
2023/06/20 08:07:44;;;;;;;11.18;7.43;;;;;;;;;;4436048;32;316466;-95
2023/06/20 08:10:14;;;;;;;13.07;8.50;;;;;;;;;;4422293;32;415898;-94
2023/06/20 08:12:41;;;;;;;9.65;7.45;;;;;;;;;;4413143;32;317437;-91
2023/06/20 08:15:09;;;;;;;11.95;7.25;;;;;;;;;;4422952;32;317337;-95
2023/06/20 08:17:37;;;;;;;10.98;7.62;;;;;;;;;;4417547;32;336727;-93
2023/06/20 08:20:06;;;;;;;11.00;6.95;;;;;;;;;;4433303;32;317457;-93
2023/06/20 08:22:39;;;;;;;10.27;7.28;;;;;;;;;;4427876;32;317358;-95
2023/06/20 08:25:09;;;;;;;11.88;7.05;;;;;;;;;;4422232;32;317476;-93
2023/06/20 08:27:37;;;;;;;10.20;7.35;;;;;;;;;;4412079;32;317637;-93
2023/06/20 08:30:07;;;;;;;13.18;6.82;;;;;;;;;;4427543;32;317642;-93
2023/06/20 08:32:39;;;;;;;11.00;7.50;;;;;;;;;;4419524;32;345627;-91
2023/06/20 08:35:08;;;;;;;8.73;6.47;;;;;;;;;;4409867;32;389622;-94
2023/06/20 08:37:42;;;;;;;8.38;6.00;;;;;;;;;;4426855;32;316445;-94
2023/06/20 08:40:34;;;;;;;9.15;6.72;;;;;;;;;;4429441;32;316476;-94
2023/06/20 08:43:01;;;;;;;9.77;6.95;;;;;;;;;;4422013;32;419720;-93
2023/06/20 08:45:29;;;;;;;8.52;6.43;;;;;;;;;;4427991;32;316655;-94
2023/06/20 08:47:58;;;;;;;9.90;7.15;;;;;;;;;;4418621;32;338160;-93
2023/06/20 08:50:27;;;;;;;8.80;6.68;;;;;;;;;;4439230;32;316335;-92
2023/06/20 08:53:03;;;;;;;9.90;6.53;;;;;;;;;;4418674;32;316286;-94
2023/06/20 08:55:33;;;;;;;13.35;6.93;;;;;;;;;;4432309;32;316464;-92
2023/06/20 08:58:01;;;;;;;9.48;6.55;;;;;;;;;;4423995;32;417003;-93
2023/06/20 09:00:31;;;;;;;8.98;5.90;;;;;;;;;;4425010;32;316417;-93
2023/06/20 09:02:58;;;;;;;8.05;5.85;;;;;;;;;;4411204;32;347980;-94
2023/06/20 09:05:31;;;;;;;13.00;6.20;;;;;;;;;;4410220;32;316306;-94
2023/06/20 09:08:03;;;;;;;9.05;6.30;;;;;;;;;;4424968;32;317425;-93
2023/06/20 09:10:46;;;;;;;6.55;5.85;;;;;;;;;;4414481;32;316182;-93
2023/06/20 09:13:16;;;;;;;8.35;6.72;;;;;;;;;;4375539;32;386554;-92
2023/06/20 09:15:46;;;;;;;7.95;6.68;;;;;;;;;;4427752;32;316504;-92
2023/06/20 09:18:18;;;;;;;9.70;6.47;;;;;;;;;;4430119;32;316437;-93
2023/06/20 09:20:45;;;;;;;9.00;6.87;;;;;;;;;;4424645;32;316505;-93
2023/06/20 09:23:28;;;;;;;6.00;5.30;;;;;;;;;;4437705;32;316463;-93
2023/06/20 09:25:57;;;;;;;8.15;5.57;;;;;;;;;;4426526;32;316436;-93
2023/06/20 09:28:24;;;;;;;9.23;6.47;;;;;;;;;;4438002;32;316627;-94
2023/06/20 09:30:56;;;;;;;7.90;5.68;;;;;;;;;;4429210;32;316397;-93
2023/06/20 09:33:26;;;;;;;7.07;6.37;;;;;;;;;;4434444;32;316296;-93
2023/06/20 09:35:53;;;;;;;7.57;5.95;;;;;;;;;;4426820;32;338746;-93
2023/06/20 09:38:22;;;;;;;7.60;5.82;;;;;;;;;;4425853;32;316310;-92
2023/06/20 09:40:53;;;;;;;7.75;6.00;;;;;;;;;;4429074;32;316106;-94
2023/06/20 09:43:25;;;;;;;7.78;5.97;;;;;;;;;;4409634;32;316449;-92
2023/06/20 09:45:52;;;;;;;8.65;5.78;;;;;;;;;;4418567;32;316592;-93
2023/06/20 09:48:21;;;;;;;12.93;6.95;;;;;;;;;;4437648;32;316699;-93
2023/06/20 09:50:48;;;;;;;9.63;6.15;;;;;;;;;;4414277;32;317255;-94
2023/06/20 09:53:26;;;;;;;13.98;6.62;;;;;;;;;;4431703;32;316193;-93
2023/06/20 09:55:56;;;;;;;10.18;6.05;;;;;;;;;;4420608;32;317559;-93
2023/06/20 09:58:30;;;;;;;9.73;6.30;;;;;;;;;;4424971;32;317444;-93
2023/06/20 10:00:59;;;;;;;11.25;5.75;;;;;;;;;;4429305;32;316321;-94
2023/06/20 10:03:29;;;;;;;7.37;5.35;;;;;;;;;;4419549;32;317449;-93
2023/06/20 10:05:58;;;;;;;13.65;5.57;;;;;;;;;;4414778;32;316147;-94
2023/06/20 10:08:32;;;;;;;6.72;5.90;;;;;;;;;;4423481;32;317296;-94
2023/06/20 10:11:00;;;;;;;7.82;6.40;;;;;;;;;;4414251;32;316308;-93
2023/06/20 10:13:29;;;;;;;10.18;6.35;;;;;;;;;;4424736;32;316885;-94
2023/06/20 10:15:59;;;;;;;9.43;6.78;;;;;;;;;;4415275;32;317245;-94
2023/06/20 10:18:37;;;;;;;6.95;5.50;;;;;;;;;;4423631;32;316415;-93
2023/06/20 10:21:07;;;;;;;8.82;5.95;;;;;;;;;;4404856;32;416098;-93
2023/06/20 10:23:38;;;;;;;6.85;6.05;;;;;;;;;;4436259;32;316442;-92
2023/06/20 10:26:10;;;;;;;10.73;5.80;;;;;;;;;;4397649;32;419031;-94
2023/06/20 10:28:39;;;;;;;8.77;5.95;;;;;;;;;;4409376;32;317485;-94
2023/06/20 10:31:06;;;;;;;8.23;6.57;;;;;;;;;;4435602;32;316293;-94
2023/06/20 10:33:34;;;;;;;12.20;5.43;;;;;;;;;;4424471;32;316439;-94
2023/06/20 10:36:17;;;;;;;9.02;5.62;;;;;;;;;;4424688;32;414921;-94
2023/06/20 10:39:18;;;;;;;10.48;5.93;;;;;;;;;;4418056;32;316494;-93
2023/06/20 10:41:48;;;;;;;6.20;5.60;;;;;;;;;;4417679;32;317252;-93
2023/06/20 10:44:34;;;;;;;8.18;6.22;;;;;;;;;;4421908;32;316668;-94
2023/06/20 10:47:01;;;;;;;6.87;5.93;;;;;;;;;;4416957;32;420729;-95
2023/06/20 10:49:35;;;;;;;8.38;5.40;;;;;;;;;;4437278;32;316021;-94
2023/06/20 10:52:05;;;;;;;12.77;6.05;;;;;;;;;;4423835;32;419773;-94
2023/06/20 10:54:35;;;;;;;9.30;5.97;;;;;;;;;;4423299;32;317341;-93
2023/06/20 10:57:05;;;;;;;6.78;5.40;;;;;;;;;;4425409;32;415635;-94
2023/06/20 10:59:34;;;;;;;9.07;6.22;;;;;;;;;;4429731;32;316725;-93
2023/06/20 11:02:05;;;;;;;10.88;6.43;;;;;;;;;;4414790;32;415166;-94
2023/06/20 11:04:33;;;;;;;31.65;6.45;;;;;;;;;;4435415;32;317456;-94
2023/06/20 11:07:07;;;;;;;10.75;5.72;;;;;;;;;;4411343;32;387567;-93
2023/06/20 11:09:40;;;;;;;6.93;6.00;;;;;;;;;;4424397;32;338867;-93
2023/06/20 11:12:09;;;;;;;9.02;6.43;;;;;;;;;;4424806;32;385870;-93
2023/06/20 11:14:40;;;;;;;6.57;5.93;;;;;;;;;;4427596;32;352293;-93
2023/06/20 11:17:08;;;;;;;8.65;6.37;;;;;;;;;;4424012;32;316535;-93
2023/06/20 11:19:37;;;;;;;10.30;5.80;;;;;;;;;;4422635;32;316661;-94
2023/06/20 11:22:04;;;;;;;7.65;6.37;;;;;;;;;;4424686;32;415724;-94
2023/06/20 11:24:35;;;;;;;11.05;6.82;;;;;;;;;;4437861;32;316501;-93
2023/06/20 11:27:14;;;;;;;8.95;6.45;;;;;;;;;;4415963;32;410843;-93
2023/06/20 11:29:41;;;;;;;10.00;6.78;;;;;;;;;;4406707;32;316537;-94
2023/06/20 11:32:10;;;;;;;11.25;6.68;;;;;;;;;;4437055;32;317209;-94
2023/06/20 11:34:54;;;;;;;30.98;18.25;;;;;;;;;;4412785;32;317646;-93
2023/06/20 11:37:21;;;;;;;8.85;7.28;;;;;;;;;;4422647;32;318672;-94
2023/06/20 11:39:48;;;;;;;10.70;5.80;;;;;;;;;;4415699;32;316277;-93
2023/06/20 11:42:18;;;;;;;5.97;5.35;;;;;;;;;;4426176;32;317446;-93
2023/06/20 11:44:45;;;;;;;8.48;6.32;;;;;;;;;;4426667;32;316546;-93
2023/06/20 11:47:12;;;;;;;11.63;6.15;;;;;;;;;;4437603;32;316908;-93
2023/06/20 11:49:41;;;;;;;7.37;6.25;;;;;;;;;;4418001;32;346115;-92
2023/06/20 11:52:10;;;;;;;9.30;5.72;;;;;;;;;;4436699;32;316534;-93
2023/06/20 11:54:51;;;;;;;9.65;6.15;;;;;;;;;;4422870;32;316530;-93
2023/06/20 11:57:28;;;;;;;7.32;6.00;;;;;;;;;;4435886;32;316254;-93
2023/06/20 12:00:05;;;;;;;7.97;5.70;;;;;;;;;;4404860;32;316511;-93
2023/06/20 12:02:33;;;;;;;8.77;7.28;;;;;;;;;;4393988;32;316773;-94
2023/06/20 12:05:01;;;;;;;8.57;6.47;;;;;;;;;;4411397;32;316803;-94
2023/06/20 12:07:29;;;;;;;6.85;6.00;;;;;;;;;;4422212;32;316290;-94
2023/06/20 12:10:06;;;;;;;9.68;5.70;;;;;;;;;;4425204;32;316683;-93
2023/06/20 12:12:35;;;;;;;9.45;6.20;;;;;;;;;;4422744;32;316353;-95
2023/06/20 12:15:04;;;;;;;6.62;5.65;;;;;;;;;;4410963;32;388555;-94
2023/06/20 12:17:31;;;;;;;6.00;5.40;;;;;;;;;;4429040;32;316472;-94
2023/06/20 12:19:57;;;;;;;7.80;5.50;;;;;;;;;;4419220;32;316368;-94
2023/06/20 12:22:25;;;;;;;9.85;5.97;;;;;;;;;;4435544;32;316295;-94
2023/06/20 12:24:52;;;;;;;9.25;6.28;;;;;;;;;;4425720;32;353841;-94
2023/06/20 12:27:20;;;;;;;10.02;5.72;;;;;;;;;;4410650;32;315471;-94
2023/06/20 12:29:50;;;;;;;6.20;5.55;;;;;;;;;;4426902;32;317971;-94
2023/06/20 12:32:22;;;;;;;7.05;5.93;;;;;;;;;;4437666;32;315319;-95
2023/06/20 12:34:51;;;;;;;5.97;5.37;;;;;;;;;;4426496;32;316331;-94
2023/06/20 12:37:19;;;;;;;7.85;6.30;;;;;;;;;;4436647;32;316728;-94
2023/06/20 12:39:47;;;;;;;8.90;5.62;;;;;;;;;;4425934;32;341236;-95
2023/06/20 12:42:18;;;;;;;8.82;6.32;;;;;;;;;;4410333;32;315298;-95
2023/06/20 12:44:45;;;;;;;7.78;5.97;;;;;;;;;;4410435;32;316699;-95
2023/06/20 12:47:17;;;;;;;8.32;5.62;;;;;;;;;;4402845;32;316332;-94
2023/06/20 12:49:45;;;;;;;8.02;5.90;;;;;;;;;;4426302;32;316304;-94
2023/06/20 12:52:12;;;;;;;9.23;5.53;;;;;;;;;;4437879;32;316456;-95
2023/06/20 12:54:41;;;;;;;7.43;6.40;;;;;;;;;;4425277;32;316420;-94
2023/06/20 12:57:13;;;;;;;8.57;6.53;;;;;;;;;;4429944;32;316519;-94
2023/06/20 12:59:41;;;;;;;6.82;5.28;;;;;;;;;;4430611;32;316405;-93
2023/06/20 13:02:11;;;;;;;10.07;6.22;;;;;;;;;;4441647;32;316422;-93
2023/06/20 13:04:40;;;;;;;6.85;5.53;;;;;;;;;;4426759;32;320771;-93
2023/06/20 13:07:07;;;;;;;6.12;5.45;;;;;;;;;;4437909;32;315387;-93
2023/06/20 13:09:40;;;;;;;7.10;6.40;;;;;;;;;;4423863;32;315035;-92
2023/06/20 13:12:07;;;;;;;6.60;5.72;;;;;;;;;;4412251;32;418104;-92
2023/06/20 13:14:35;;;;;;;6.85;6.07;;;;;;;;;;4426654;32;315651;-95
2023/06/20 13:17:02;;;;;;;8.07;6.45;;;;;;;;;;4412701;32;417542;-93
2023/06/20 13:19:30;;;;;;;8.68;5.97;;;;;;;;;;4419703;32;314812;-95
2023/06/20 13:21:58;;;;;;;7.40;5.95;;;;;;;;;;4406221;32;316423;-94
2023/06/20 13:24:25;;;;;;;9.98;6.03;;;;;;;;;;4410674;32;316694;-95
2023/06/20 13:26:52;;;;;;;9.77;5.83;;;;;;;;;;4370333;32;316662;-94
2023/06/20 13:29:20;;;;;;;9.82;6.00;;;;;;;;;;4415361;32;316349;-94
2023/06/20 13:31:48;;;;;;;10.43;6.82;;;;;;;;;;4413065;32;316833;-93
2023/06/20 13:34:16;;;;;;;6.95;6.00;;;;;;;;;;4387475;32;317526;-95
2023/06/20 13:36:44;;;;;;;9.23;6.67;;;;;;;;;;4405091;32;316366;-95
2023/06/20 13:39:13;;;;;;;10.80;6.07;;;;;;;;;;4397454;32;316061;-95
2023/06/20 13:41:43;;;;;;;7.40;6.28;;;;;;;;;;4397917;32;317367;-94
2023/06/20 13:44:10;;;;;;;10.23;6.35;;;;;;;;;;4402915;32;316476;-94
2023/06/20 13:46:40;;;;;;;9.15;6.70;;;;;;;;;;4398142;32;317689;-95
2023/06/20 13:49:07;;;;;;;9.00;7.43;;;;;;;;;;4402239;32;316560;-93
2023/06/20 13:51:35;;;;;;;9.38;5.95;;;;;;;;;;4421460;32;316667;-94
2023/06/20 13:54:03;;;;;;;8.68;5.97;;;;;;;;;;4388527;32;419242;-94
2023/06/20 13:56:32;;;;;;;7.32;5.90;;;;;;;;;;4422332;32;316542;-95
2023/06/20 13:58:59;;;;;;;14.80;7.15;;;;;;;;;;4398633;32;316444;-93
2023/06/20 14:01:26;;;;;;;10.43;6.53;;;;;;;;;;4420236;32;317917;-94
2023/06/20 14:03:55;;;;;;;8.95;6.37;;;;;;;;;;4390130;32;317560;-96
2023/06/20 14:06:23;;;;;;;7.35;5.90;;;;;;;;;;4421866;32;316670;-95
2023/06/20 14:08:50;;;;;;;11.27;5.72;;;;;;;;;;4403222;32;352223;-95
2023/06/20 14:11:17;;;;;;;6.82;5.93;;;;;;;;;;4397000;32;317593;-93
2023/06/20 14:13:46;;;;;;;8.00;6.28;;;;;;;;;;4404456;32;317059;-93
2023/06/20 14:16:15;;;;;;;8.25;6.40;;;;;;;;;;4407428;32;316588;-93
2023/06/20 14:18:42;;;;;;;10.13;5.72;;;;;;;;;;4402706;32;316472;-95
2023/06/20 14:21:09;;;;;;;8.68;6.12;;;;;;;;;;4402099;32;316492;-94
2023/06/20 14:23:36;;;;;;;19.55;6.68;;;;;;;;;;4412875;32;316382;-94
2023/06/20 14:26:03;;;;;;;8.18;5.93;;;;;;;;;;4423259;32;317533;-94
2023/06/20 14:28:31;;;;;;;9.43;6.30;;;;;;;;;;4409387;32;316314;-94
2023/06/20 14:30:59;;;;;;;10.38;6.20;;;;;;;;;;4412443;32;325782;-94
2023/06/20 14:33:26;;;;;;;8.23;6.30;;;;;;;;;;4419495;32;317616;-94
2023/06/20 14:35:53;;;;;;;9.85;6.55;;;;;;;;;;4403267;32;315785;-94
2023/06/20 14:38:20;;;;;;;12.43;6.43;;;;;;;;;;4420678;32;316695;-95
2023/06/20 14:40:49;;;;;;;11.85;7.28;;;;;;;;;;4402434;32;316847;-94